createdAt,value
2022-09-28T00:00:39.786Z,8.48
2022-09-28T00:01:39.823Z,8.47
2022-09-28T00:02:40.014Z,8.50
2022-09-28T00:03:39.787Z,8.48
2022-09-28T00:04:39.783Z,8.53
2022-09-28T00:05:39.782Z,8.54
2022-09-28T00:06:39.704Z,8.50
2022-09-28T00:07:39.713Z,8.50
2022-09-28T00:08:39.723Z,8.48
2022-09-28T00:09:39.714Z,8.47
2022-09-28T00:10:39.716Z,8.45
2022-09-28T00:11:39.716Z,8.45
2022-09-28T00:12:39.666Z,8.44
2022-09-28T00:13:39.680Z,8.44
2022-09-28T00:14:39.641Z,8.44
2022-09-28T00:15:39.638Z,8.44
2022-09-28T00:16:39.662Z,8.40
2022-09-28T00:17:39.681Z,8.40
2022-09-28T00:18:39.638Z,8.40
2022-09-28T00:19:39.648Z,8.39
2022-09-28T00:20:39.564Z,8.39
2022-09-28T00:21:39.572Z,8.37
2022-09-28T00:22:39.556Z,8.36
2022-09-28T00:23:39.582Z,8.35
2022-09-28T00:24:39.543Z,8.33
2022-09-28T00:25:39.525Z,8.36
2022-09-28T00:26:39.519Z,8.33
2022-09-28T00:27:39.511Z,8.35
2022-09-28T00:28:39.515Z,8.37
2022-09-28T00:29:39.531Z,8.39
2022-09-28T00:30:39.476Z,8.37
2022-09-28T00:31:39.525Z,8.42
2022-09-28T00:32:39.474Z,8.45
2022-09-28T00:33:39.431Z,8.45
2022-09-28T00:34:39.446Z,8.44
2022-09-28T00:35:39.509Z,8.44
2022-09-28T00:36:39.399Z,8.44
2022-09-28T00:37:39.391Z,8.44
2022-09-28T00:38:39.406Z,8.45
2022-09-28T00:39:39.391Z,8.45
2022-09-28T00:40:39.452Z,8.47
2022-09-28T00:41:39.401Z,8.47
2022-09-28T00:42:39.396Z,8.47
2022-09-28T00:43:39.331Z,8.47
2022-09-28T00:44:39.350Z,8.47
2022-09-28T00:45:39.409Z,8.44
2022-09-28T00:46:39.392Z,8.40
2022-09-28T00:47:39.368Z,8.37
2022-09-28T00:48:39.350Z,8.37
2022-09-28T00:49:39.282Z,8.36
2022-09-28T00:50:39.278Z,8.33
2022-09-28T00:51:39.278Z,8.33
2022-09-28T00:52:39.276Z,8.32
2022-09-28T00:53:39.273Z,8.32
2022-09-28T00:54:39.312Z,8.35
2022-09-28T00:55:39.249Z,8.35
2022-09-28T00:56:39.265Z,8.35
2022-09-28T00:57:39.512Z,8.35
2022-09-28T00:58:39.209Z,8.35
2022-09-28T00:59:39.247Z,8.35
2022-09-28T01:00:39.228Z,8.35
2022-09-28T01:01:39.297Z,8.33
2022-09-28T01:02:39.195Z,8.35
2022-09-28T01:03:39.146Z,8.33
2022-09-28T01:04:39.190Z,8.32
2022-09-28T01:05:39.180Z,8.30
2022-09-28T01:06:39.108Z,8.29
2022-09-28T01:07:39.117Z,8.28
2022-09-28T01:08:39.123Z,8.25
2022-09-28T01:09:39.127Z,8.21
2022-09-28T01:10:39.102Z,8.20
2022-09-28T01:11:39.165Z,8.20
2022-09-28T01:12:39.077Z,8.20
2022-09-28T01:13:39.084Z,8.18
2022-09-28T01:14:39.077Z,8.17
2022-09-28T01:15:39.032Z,8.14
2022-09-28T01:16:39.174Z,8.11
2022-09-28T01:17:39.065Z,8.07
2022-09-28T01:18:38.992Z,8.02
2022-09-28T01:19:39.035Z,7.99
2022-09-28T01:20:39.028Z,7.99
2022-09-28T01:21:39.020Z,7.97
2022-09-28T01:22:38.990Z,7.94
2022-09-28T01:23:39.001Z,7.96
2022-09-28T01:24:38.955Z,7.93
2022-09-28T01:25:38.958Z,7.92
2022-09-28T01:26:38.986Z,7.92
2022-09-28T01:27:38.925Z,7.92
2022-09-28T01:28:38.909Z,7.92
2022-09-28T01:29:38.922Z,7.90
2022-09-28T01:30:38.941Z,7.94
2022-09-28T01:31:38.912Z,7.94
2022-09-28T01:32:38.867Z,7.97
2022-09-28T01:33:38.827Z,7.99
2022-09-28T01:34:39.003Z,8.00
2022-09-28T01:35:38.882Z,8.02
2022-09-28T01:36:38.838Z,8.04
2022-09-28T01:37:38.846Z,8.07
2022-09-28T01:38:38.837Z,8.08
2022-09-28T01:39:38.797Z,8.10
2022-09-28T01:40:38.838Z,8.11
2022-09-28T01:41:39.100Z,8.12
2022-09-28T01:42:38.783Z,8.14
2022-09-28T01:43:38.786Z,8.14
2022-09-28T01:44:38.748Z,8.15
2022-09-28T01:45:38.791Z,8.14
2022-09-28T01:46:38.714Z,8.18
2022-09-28T01:47:38.745Z,8.21
2022-09-28T01:48:38.703Z,8.21
2022-09-28T01:49:38.781Z,8.22
2022-09-28T01:50:38.724Z,8.21
2022-09-28T01:51:38.771Z,8.26
2022-09-28T01:52:38.645Z,8.28
2022-09-28T01:53:38.686Z,8.29
2022-09-28T01:54:38.688Z,8.29
2022-09-28T01:55:38.706Z,8.32
2022-09-28T01:56:38.648Z,8.33
2022-09-28T01:57:38.621Z,8.33
2022-09-28T01:58:38.623Z,8.32
2022-09-28T01:59:38.696Z,8.30
2022-09-28T02:00:38.691Z,8.32
2022-09-28T02:01:38.698Z,8.30
2022-09-28T02:02:38.582Z,8.30
2022-09-28T02:03:38.590Z,8.28
2022-09-28T02:04:38.540Z,8.26
2022-09-28T02:05:38.619Z,8.25
2022-09-28T02:06:38.559Z,8.22
2022-09-28T02:07:38.527Z,8.20
2022-09-28T02:08:38.493Z,8.18
2022-09-28T02:09:38.507Z,8.20
2022-09-28T02:10:38.514Z,8.20
2022-09-28T02:11:38.533Z,8.18
2022-09-28T02:12:38.478Z,8.18
2022-09-28T02:13:38.530Z,8.18
2022-09-28T02:14:38.517Z,8.18
2022-09-28T02:15:38.454Z,8.21
2022-09-28T02:16:38.578Z,8.18
2022-09-28T02:17:38.486Z,8.18
2022-09-28T02:18:38.445Z,8.18
2022-09-28T02:19:38.425Z,8.18
2022-09-28T02:20:38.437Z,8.17
2022-09-28T02:21:38.428Z,8.18
2022-09-28T02:22:38.417Z,8.18
2022-09-28T02:23:38.385Z,8.20
2022-09-28T02:24:38.348Z,8.21
2022-09-28T02:25:38.498Z,8.21
2022-09-28T02:26:38.339Z,8.21
2022-09-28T02:27:38.386Z,8.22
2022-09-28T02:28:38.575Z,8.26
2022-09-28T02:29:38.345Z,8.30
2022-09-28T02:30:38.303Z,8.32
2022-09-28T02:31:38.408Z,8.33
2022-09-28T02:32:38.238Z,8.36
2022-09-28T02:33:38.276Z,8.37
2022-09-28T02:34:38.263Z,8.37
2022-09-28T02:35:38.335Z,8.39
2022-09-28T02:36:38.270Z,8.40
2022-09-28T02:37:38.223Z,8.40
2022-09-28T02:38:38.266Z,8.42
2022-09-28T02:39:38.460Z,8.42
2022-09-28T02:40:38.574Z,8.42
2022-09-28T02:41:38.210Z,8.44
2022-09-28T02:42:38.258Z,8.47
2022-09-28T02:43:38.169Z,8.45
2022-09-28T02:44:38.153Z,8.45
2022-09-28T02:45:38.176Z,8.47
2022-09-28T02:46:38.303Z,8.45
2022-09-28T02:47:38.144Z,8.44
2022-09-28T02:48:44.028Z,8.44
2022-09-28T02:49:38.131Z,8.42
2022-09-28T02:50:38.143Z,8.42
2022-09-28T02:51:38.134Z,8.39
2022-09-28T02:52:38.071Z,8.37
2022-09-28T02:53:38.141Z,8.33
2022-09-28T02:54:38.068Z,8.33
2022-09-28T02:55:38.071Z,8.30
2022-09-28T02:56:38.050Z,8.30
2022-09-28T02:57:37.983Z,8.32
2022-09-28T02:58:38.229Z,8.30
2022-09-28T02:59:38.063Z,8.29
2022-09-28T03:00:38.077Z,8.32
2022-09-28T03:01:38.041Z,8.29
2022-09-28T03:02:38.021Z,8.26
2022-09-28T03:03:38.011Z,8.26
2022-09-28T03:04:38.151Z,8.25
2022-09-28T03:05:38.005Z,8.25
2022-09-28T03:06:37.954Z,8.22
2022-09-28T03:07:37.961Z,8.21
2022-09-28T03:08:37.882Z,8.20
2022-09-28T03:09:37.901Z,8.20
2022-09-28T03:10:38.118Z,8.20
2022-09-28T03:11:38.083Z,8.18
2022-09-28T03:12:37.875Z,8.17
2022-09-28T03:13:37.958Z,8.15
2022-09-28T03:14:37.853Z,8.14
2022-09-28T03:15:37.879Z,8.11
2022-09-28T03:16:37.917Z,8.12
2022-09-28T03:17:37.998Z,8.12
2022-09-28T03:18:37.847Z,8.14
2022-09-28T03:19:37.951Z,8.12
2022-09-28T03:20:37.838Z,8.14
2022-09-28T03:21:37.766Z,8.12
2022-09-28T03:22:37.853Z,8.10
2022-09-28T03:23:37.847Z,8.08
2022-09-28T03:24:37.795Z,8.07
2022-09-28T03:25:37.768Z,8.07
2022-09-28T03:26:37.772Z,8.03
2022-09-28T03:27:37.730Z,8.04
2022-09-28T03:28:37.718Z,8.03
2022-09-28T03:29:37.763Z,8.02
2022-09-28T03:30:37.719Z,8.02
2022-09-28T03:31:37.752Z,8.00
2022-09-28T03:32:37.803Z,8.02
2022-09-28T03:33:37.646Z,8.02
2022-09-28T03:34:37.670Z,8.03
2022-09-28T03:35:37.718Z,8.04
2022-09-28T03:36:37.646Z,8.04
2022-09-28T03:37:37.648Z,8.08
2022-09-28T03:38:37.789Z,8.08
2022-09-28T03:39:37.665Z,8.04
2022-09-28T03:40:37.752Z,8.04
2022-09-28T03:41:37.593Z,8.04
2022-09-28T03:42:37.586Z,8.07
2022-09-28T03:43:37.568Z,8.04
2022-09-28T03:44:37.806Z,8.08
2022-09-28T03:45:37.596Z,8.10
2022-09-28T03:46:37.577Z,8.12
2022-09-28T03:47:37.575Z,8.12
2022-09-28T03:48:37.744Z,8.15
2022-09-28T03:49:37.535Z,8.15
2022-09-28T03:50:37.497Z,8.15
2022-09-28T03:51:37.496Z,8.18
2022-09-28T03:52:37.691Z,8.20
2022-09-28T03:53:37.985Z,8.21
2022-09-28T03:54:37.590Z,8.21
2022-09-28T03:55:37.452Z,8.22
2022-09-28T03:56:37.615Z,8.25
2022-09-28T03:57:37.504Z,8.26
2022-09-28T03:58:37.415Z,8.26
2022-09-28T03:59:37.550Z,8.29
2022-09-28T04:00:37.505Z,8.26
2022-09-28T04:01:37.574Z,8.28
2022-09-28T04:02:37.648Z,8.22
2022-09-28T04:03:37.375Z,8.22
2022-09-28T04:04:37.375Z,8.25
2022-09-28T04:05:37.338Z,8.21
2022-09-28T04:06:37.416Z,8.21
2022-09-28T04:07:37.362Z,8.20
2022-09-28T04:08:37.454Z,8.20
2022-09-28T04:09:37.305Z,8.21
2022-09-28T04:10:37.364Z,8.22
2022-09-28T04:11:59.412Z,8.21
2022-09-28T04:12:37.307Z,8.21
2022-09-28T04:13:37.427Z,8.22
2022-09-28T04:14:37.423Z,8.21
2022-09-28T04:15:37.401Z,8.22
2022-09-28T04:16:37.490Z,8.21
2022-09-28T04:17:40.101Z,8.20
2022-09-28T04:18:37.283Z,8.18
2022-09-28T04:19:37.206Z,8.17
2022-09-28T04:20:37.242Z,8.17
2022-09-28T04:21:37.225Z,8.17
2022-09-28T04:22:37.215Z,8.15
2022-09-28T04:23:37.262Z,8.15
2022-09-28T04:24:37.186Z,8.14
2022-09-28T04:25:37.167Z,8.15
2022-09-28T04:26:37.180Z,8.17
2022-09-28T04:27:37.184Z,8.18
2022-09-28T04:28:37.126Z,8.17
2022-09-28T04:29:37.255Z,8.17
2022-09-28T04:30:37.127Z,8.17
2022-09-28T04:31:37.156Z,8.15
2022-09-28T04:32:37.087Z,8.14
2022-09-28T04:33:37.064Z,8.12
2022-09-28T04:34:40.701Z,8.12
2022-09-28T04:35:37.086Z,8.11
2022-09-28T04:36:37.042Z,8.12
2022-09-28T04:37:37.044Z,8.12
2022-09-28T04:38:52.382Z,8.15
2022-09-28T04:39:37.045Z,8.17
2022-09-28T04:40:37.096Z,8.17
2022-09-28T04:41:37.026Z,8.18
2022-09-28T04:42:36.963Z,8.18
2022-09-28T04:43:36.972Z,8.18
2022-09-28T04:44:36.937Z,8.20
2022-09-28T04:45:36.982Z,8.17
2022-09-28T04:46:36.922Z,8.20
2022-09-28T04:47:36.961Z,8.20
2022-09-28T04:48:36.921Z,8.20
2022-09-28T04:49:36.927Z,8.20
2022-09-28T04:50:36.944Z,8.21
2022-09-28T04:51:36.960Z,8.21
2022-09-28T04:52:36.885Z,8.20
2022-09-28T04:53:36.898Z,8.21
2022-09-28T04:54:36.847Z,8.20
2022-09-28T04:55:36.876Z,8.20
2022-09-28T04:56:36.853Z,8.22
2022-09-28T04:57:36.825Z,8.22
2022-09-28T04:58:36.823Z,8.21
2022-09-28T04:59:36.866Z,8.21
2022-09-28T05:00:36.807Z,8.20
2022-09-28T05:01:36.916Z,8.21
2022-09-28T05:02:36.906Z,8.17
2022-09-28T05:03:36.805Z,8.15
2022-09-28T05:04:36.763Z,8.15
2022-09-28T05:05:36.843Z,8.15
2022-09-28T05:06:36.743Z,8.15
2022-09-28T05:07:36.722Z,8.14
2022-09-28T05:08:36.756Z,8.15
2022-09-28T05:09:38.515Z,8.15
2022-09-28T05:10:36.743Z,8.17
2022-09-28T05:11:36.764Z,8.17
2022-09-28T05:12:36.807Z,8.15
2022-09-28T05:13:36.698Z,8.20
2022-09-28T05:14:36.662Z,8.21
2022-09-28T05:15:36.697Z,8.22
2022-09-28T05:16:36.796Z,8.21
2022-09-28T05:17:36.719Z,8.25
2022-09-28T05:18:36.646Z,8.25
2022-09-28T05:19:36.642Z,8.25
2022-09-28T05:20:36.627Z,8.25
2022-09-28T05:21:36.610Z,8.21
2022-09-28T05:22:36.566Z,8.22
2022-09-28T05:23:36.640Z,8.21
2022-09-28T05:24:36.615Z,8.22
2022-09-28T05:25:36.570Z,8.22
2022-09-28T05:26:36.557Z,8.22
2022-09-28T05:27:36.531Z,8.25
2022-09-28T05:28:36.563Z,8.25
2022-09-28T05:29:36.603Z,8.25
2022-09-28T05:30:36.564Z,8.26
2022-09-28T05:31:36.568Z,8.28
2022-09-28T05:32:36.523Z,8.28
2022-09-28T05:33:36.587Z,8.29
2022-09-28T05:34:36.486Z,8.32
2022-09-28T05:35:36.538Z,8.33
2022-09-28T05:36:36.476Z,8.33
2022-09-28T05:37:36.418Z,8.36
2022-09-28T05:38:36.441Z,8.39
2022-09-28T05:39:36.445Z,8.40
2022-09-28T05:40:36.491Z,8.40
2022-09-28T05:41:36.445Z,8.40
2022-09-28T05:42:36.458Z,8.40
2022-09-28T05:43:36.456Z,8.39
2022-09-28T05:44:36.371Z,8.36
2022-09-28T05:45:36.513Z,8.35
2022-09-28T05:46:36.777Z,8.35
2022-09-28T05:47:37.092Z,8.33
2022-09-28T05:48:36.371Z,8.33
2022-09-28T05:49:36.465Z,8.36
2022-09-28T05:50:36.385Z,8.35
2022-09-28T05:51:36.371Z,8.37
2022-09-28T05:52:36.321Z,8.35
2022-09-28T05:53:36.324Z,8.36
2022-09-28T05:54:36.264Z,8.35
2022-09-28T05:55:36.296Z,8.32
2022-09-28T05:56:36.285Z,8.32
2022-09-28T05:57:36.258Z,8.32
2022-09-28T05:58:36.224Z,8.33
2022-09-28T05:59:36.377Z,8.32
2022-09-28T06:00:36.225Z,8.33
2022-09-28T06:01:36.293Z,8.33
2022-09-28T06:02:36.324Z,8.36
2022-09-28T06:03:36.211Z,8.37
2022-09-28T06:04:36.252Z,8.40
2022-09-28T06:05:36.490Z,8.39
2022-09-28T06:06:36.423Z,8.39
2022-09-28T06:07:36.212Z,8.42
2022-09-28T06:08:36.323Z,8.40
2022-09-28T06:09:36.266Z,8.40
2022-09-28T06:10:36.359Z,8.42
2022-09-28T06:11:36.225Z,8.44
2022-09-28T06:12:36.253Z,8.45
2022-09-28T06:13:36.133Z,8.45
2022-09-28T06:14:36.192Z,8.45
2022-09-28T06:15:36.179Z,8.50
2022-09-28T06:16:39.348Z,8.47
2022-09-28T06:17:36.155Z,8.51
2022-09-28T06:18:36.232Z,8.53
2022-09-28T06:19:36.100Z,8.54
2022-09-28T06:20:36.032Z,8.51
2022-09-28T06:21:36.158Z,8.48
2022-09-28T06:22:36.194Z,8.48
2022-09-28T06:23:36.214Z,8.50
2022-09-28T06:24:36.011Z,8.50
2022-09-28T06:25:36.193Z,8.48
2022-09-28T06:26:36.010Z,8.48
2022-09-28T06:27:36.178Z,8.48
2022-09-28T06:28:35.989Z,8.50
2022-09-28T06:29:35.985Z,8.50
2022-09-28T06:30:36.071Z,8.48
2022-09-28T06:31:35.960Z,8.50
2022-09-28T06:32:36.896Z,8.50
2022-09-28T06:33:35.995Z,8.50
2022-09-28T06:34:36.012Z,8.50
2022-09-28T06:35:36.338Z,8.50
2022-09-28T06:36:35.910Z,8.51
2022-09-28T06:37:35.932Z,8.53
2022-09-28T06:38:36.477Z,8.55
2022-09-28T06:39:35.980Z,8.54
2022-09-28T06:40:35.900Z,8.55
2022-09-28T06:41:35.939Z,8.55
2022-09-28T06:42:35.829Z,8.55
2022-09-28T06:43:35.815Z,8.54
2022-09-28T06:44:35.818Z,8.54
2022-09-28T06:45:35.834Z,8.54
2022-09-28T06:46:35.827Z,8.51
2022-09-28T06:47:35.988Z,8.51
2022-09-28T06:48:35.897Z,8.53
2022-09-28T06:49:35.745Z,8.53
2022-09-28T06:50:35.741Z,8.53
2022-09-28T06:51:35.719Z,8.54
2022-09-28T06:52:35.791Z,8.54
2022-09-28T06:53:35.735Z,8.53
2022-09-28T06:54:35.701Z,8.53
2022-09-28T06:55:35.722Z,8.53
2022-09-28T06:56:35.708Z,8.51
2022-09-28T06:57:35.680Z,8.54
2022-09-28T06:58:35.674Z,8.54
2022-09-28T06:59:35.708Z,8.55
2022-09-28T07:00:35.700Z,8.58
2022-09-28T07:01:35.668Z,8.57
2022-09-28T07:02:35.769Z,8.60
2022-09-28T07:03:35.659Z,8.60
2022-09-28T07:04:35.738Z,8.62
2022-09-28T07:05:35.639Z,8.58
2022-09-28T07:06:35.608Z,8.57
2022-09-28T07:07:35.701Z,8.54
2022-09-28T07:08:35.677Z,8.53
2022-09-28T07:09:40.297Z,8.53
2022-09-28T07:10:35.597Z,8.53
2022-09-28T07:11:35.553Z,8.55
2022-09-28T07:12:35.547Z,8.55
2022-09-28T07:13:49.802Z,8.58
2022-09-28T07:14:47.455Z,8.62
2022-09-28T07:15:35.523Z,8.63
2022-09-28T07:17:06.690Z,8.65
2022-09-28T07:17:44.743Z,8.65
2022-09-28T07:18:35.609Z,8.65
2022-09-28T07:19:35.858Z,8.68
2022-09-28T07:20:46.539Z,8.66
2022-09-28T07:21:35.461Z,8.66
2022-09-28T07:22:43.085Z,8.65
2022-09-28T07:23:46.337Z,8.66
2022-09-28T07:24:35.403Z,8.65
2022-09-28T07:25:35.395Z,8.65
2022-09-28T07:26:35.366Z,8.66
2022-09-28T07:27:35.426Z,8.69
2022-09-28T07:28:35.386Z,8.72
2022-09-28T07:29:35.356Z,8.75
2022-09-28T07:30:35.430Z,8.76
2022-09-28T07:31:35.354Z,8.78
2022-09-28T07:32:35.447Z,8.78
2022-09-28T07:33:35.400Z,8.78
2022-09-28T07:34:35.322Z,8.79
2022-09-28T07:35:35.541Z,8.79
2022-09-28T07:36:35.554Z,8.81
2022-09-28T07:37:35.388Z,8.86
2022-09-28T07:38:35.385Z,8.87
2022-09-28T07:39:35.272Z,8.88
2022-09-28T07:40:35.510Z,8.90
2022-09-28T07:41:35.548Z,8.91
2022-09-28T07:42:35.211Z,8.91
2022-09-28T07:43:35.245Z,8.91
2022-09-28T07:44:35.210Z,8.94
2022-09-28T07:45:35.278Z,8.96
2022-09-28T07:46:35.167Z,8.96
2022-09-28T07:47:35.533Z,9.01
2022-09-28T07:48:35.316Z,8.99
2022-09-28T07:49:35.163Z,9.01
2022-09-28T07:50:35.170Z,9.02
2022-09-28T07:51:35.162Z,9.02
2022-09-28T07:52:35.331Z,9.02
2022-09-28T07:53:35.682Z,9.04
2022-09-28T07:54:35.273Z,9.06
2022-09-28T07:55:35.203Z,9.05
2022-09-28T07:56:35.084Z,9.06
2022-09-28T07:57:35.148Z,9.09
2022-09-28T07:58:35.118Z,9.10
2022-09-28T07:59:35.148Z,9.10
2022-09-28T08:00:35.049Z,9.13
2022-09-28T08:01:35.127Z,9.13
2022-09-28T08:02:35.216Z,9.15
2022-09-28T08:03:35.007Z,9.12
2022-09-28T08:04:35.029Z,9.10
2022-09-28T08:05:35.029Z,9.09
2022-09-28T08:06:34.956Z,9.09
2022-09-28T08:07:35.004Z,9.05
2022-09-28T08:08:34.965Z,9.09
2022-09-28T08:09:34.953Z,9.06
2022-09-28T08:10:34.982Z,9.09
2022-09-28T08:11:34.950Z,9.09
2022-09-28T08:12:34.923Z,9.12
2022-09-28T08:13:34.892Z,9.13
2022-09-28T08:14:34.923Z,9.12
2022-09-28T08:15:34.877Z,9.09
2022-09-28T08:16:34.999Z,9.05
2022-09-28T08:17:34.958Z,9.02
2022-09-28T08:18:34.880Z,9.01
2022-09-28T08:19:34.938Z,9.04
2022-09-28T08:20:35.054Z,9.05
2022-09-28T08:21:34.800Z,9.09
2022-09-28T08:22:34.878Z,9.10
2022-09-28T08:23:34.838Z,9.13
2022-09-28T08:24:34.835Z,9.15
2022-09-28T08:25:34.819Z,9.18
2022-09-28T08:26:34.948Z,9.21
2022-09-28T08:27:34.832Z,9.24
2022-09-28T08:28:34.743Z,9.25
2022-09-28T08:29:34.753Z,9.25
2022-09-28T08:30:34.797Z,9.25
2022-09-28T08:31:34.784Z,9.23
2022-09-28T08:32:34.879Z,9.21
2022-09-28T08:33:34.712Z,9.15
2022-09-28T08:34:34.713Z,9.13
2022-09-28T08:35:34.678Z,9.13
2022-09-28T08:36:34.680Z,9.13
2022-09-28T08:37:34.667Z,9.12
2022-09-28T08:38:34.674Z,9.15
2022-09-28T08:39:34.754Z,9.16
2022-09-28T08:40:34.684Z,9.20
2022-09-28T08:41:34.949Z,9.21
2022-09-28T08:42:34.787Z,9.24
2022-09-28T08:43:34.743Z,9.27
2022-09-28T08:44:34.618Z,9.30
2022-09-28T08:45:34.615Z,9.34
2022-09-28T08:46:34.622Z,9.40
2022-09-28T08:47:34.731Z,9.45
2022-09-28T08:48:34.627Z,9.48
2022-09-28T08:49:34.833Z,9.50
2022-09-28T08:50:34.528Z,9.53
2022-09-28T08:51:34.512Z,9.56
2022-09-28T08:52:34.673Z,9.58
2022-09-28T08:53:34.509Z,9.58
2022-09-28T08:54:34.591Z,9.57
2022-09-28T08:55:34.475Z,9.56
2022-09-28T08:56:34.467Z,9.45
2022-09-28T08:57:34.438Z,9.43
2022-09-28T08:58:34.463Z,9.40
2022-09-28T08:59:34.666Z,9.42
2022-09-28T09:00:34.471Z,9.40
2022-09-28T09:01:34.484Z,9.40
2022-09-28T09:02:34.492Z,9.40
2022-09-28T09:03:34.396Z,9.42
2022-09-28T09:04:34.483Z,9.43
2022-09-28T09:05:34.465Z,9.45
2022-09-28T09:06:34.486Z,9.48
2022-09-28T09:07:34.599Z,9.50
2022-09-28T09:08:34.500Z,9.49
2022-09-28T09:09:34.395Z,9.52
2022-09-28T09:10:34.432Z,9.56
2022-09-28T09:11:34.527Z,9.61
2022-09-28T09:12:34.396Z,9.61
2022-09-28T09:13:34.455Z,9.64
2022-09-28T09:14:34.277Z,9.61
2022-09-28T09:15:34.336Z,9.58
2022-09-28T09:16:34.345Z,9.56
2022-09-28T09:17:34.285Z,9.53
2022-09-28T09:18:34.236Z,9.56
2022-09-28T09:19:34.297Z,9.56
2022-09-28T09:20:34.234Z,9.56
2022-09-28T09:21:34.199Z,9.56
2022-09-28T09:22:34.239Z,9.57
2022-09-28T09:23:34.267Z,9.60
2022-09-28T09:24:34.234Z,9.63
2022-09-28T09:25:38.306Z,9.64
2022-09-28T09:26:34.200Z,9.68
2022-09-28T09:27:34.197Z,9.73
2022-09-28T09:28:34.166Z,9.75
2022-09-28T09:29:34.224Z,9.78
2022-09-28T09:30:34.254Z,9.78
2022-09-28T09:31:34.125Z,9.76
2022-09-28T09:32:34.115Z,9.78
2022-09-28T09:33:34.139Z,9.82
2022-09-28T09:34:34.125Z,9.85
2022-09-28T09:35:34.156Z,9.91
2022-09-28T09:36:34.144Z,9.96
2022-09-28T09:37:34.108Z,10.01
2022-09-28T09:38:34.080Z,10.04
2022-09-28T09:39:34.029Z,10.07
2022-09-28T09:40:34.101Z,10.10
2022-09-28T09:41:34.140Z,10.12
2022-09-28T09:42:34.024Z,10.14
2022-09-28T09:43:34.066Z,10.18
2022-09-28T09:44:33.999Z,10.21
2022-09-28T09:45:34.002Z,10.24
2022-09-28T09:46:33.982Z,10.22
2022-09-28T09:47:34.031Z,10.18
2022-09-28T09:48:33.957Z,10.10
2022-09-28T09:49:33.964Z,10.01
2022-09-28T09:50:33.944Z,9.94
2022-09-28T09:51:33.993Z,9.91
2022-09-28T09:53:37.711Z,9.96
2022-09-28T09:54:34.043Z,9.99
2022-09-28T09:55:33.998Z,10.00
2022-09-28T09:56:34.035Z,10.01
2022-09-28T09:57:34.266Z,10.04
2022-09-28T09:58:34.311Z,10.06
2022-09-28T09:59:34.062Z,10.14
2022-09-28T10:00:34.162Z,10.19
2022-09-28T10:01:34.037Z,10.22
2022-09-28T10:02:33.954Z,10.25
2022-09-28T10:03:33.943Z,10.28
2022-09-28T10:04:33.963Z,10.26
2022-09-28T10:05:33.897Z,10.30
2022-09-28T10:06:34.065Z,10.25
2022-09-28T10:07:33.955Z,10.19
2022-09-28T10:08:33.869Z,10.15
2022-09-28T10:09:33.863Z,10.15
2022-09-28T10:10:33.819Z,10.15
2022-09-28T10:11:33.870Z,10.18
2022-09-28T10:12:33.836Z,10.19
2022-09-28T10:13:33.828Z,10.21
2022-09-28T10:14:33.859Z,10.22
2022-09-28T10:15:33.778Z,10.21
2022-09-28T10:16:33.826Z,10.18
2022-09-28T10:17:33.821Z,10.15
2022-09-28T10:18:33.778Z,10.15
2022-09-28T10:19:33.745Z,10.18
2022-09-28T10:20:33.751Z,10.22
2022-09-28T10:21:33.698Z,10.28
2022-09-28T10:22:33.681Z,10.32
2022-09-28T10:23:33.794Z,10.36
2022-09-28T10:24:33.822Z,10.40
2022-09-28T10:25:33.697Z,10.43
2022-09-28T10:26:33.641Z,10.44
2022-09-28T10:27:33.633Z,10.47
2022-09-28T10:28:33.686Z,10.51
2022-09-28T10:29:33.658Z,10.52
2022-09-28T10:30:33.651Z,10.52
2022-09-28T10:31:33.623Z,10.51
2022-09-28T10:32:33.605Z,10.51
2022-09-28T10:33:33.597Z,10.44
2022-09-28T10:34:33.625Z,10.46
2022-09-28T10:35:33.656Z,10.40
2022-09-28T10:36:33.553Z,10.36
2022-09-28T10:37:33.602Z,10.37
2022-09-28T10:38:33.565Z,10.40
2022-09-28T10:39:33.548Z,10.56
2022-09-28T10:40:33.514Z,10.92
2022-09-28T10:41:33.579Z,11.29
2022-09-28T10:42:33.592Z,11.70
2022-09-28T10:43:33.552Z,12.04
2022-09-28T10:44:33.519Z,12.24
2022-09-28T10:45:33.525Z,12.33
2022-09-28T10:46:33.522Z,12.42
2022-09-28T10:47:33.554Z,12.27
2022-09-28T10:48:33.483Z,11.96
2022-09-28T10:49:33.479Z,11.67
2022-09-28T10:50:33.626Z,11.53
2022-09-28T10:51:33.499Z,11.52
2022-09-28T10:52:33.478Z,11.50
2022-09-28T10:53:33.511Z,11.47
2022-09-28T10:54:33.486Z,11.41
2022-09-28T10:55:33.391Z,11.38
2022-09-28T10:56:33.422Z,11.36
2022-09-28T10:57:33.382Z,11.34
2022-09-28T10:58:33.343Z,11.31
2022-09-28T10:59:33.435Z,11.29
2022-09-28T11:00:33.382Z,11.32
2022-09-28T11:01:33.475Z,11.34
2022-09-28T11:02:35.982Z,11.35
2022-09-28T11:03:33.339Z,11.39
2022-09-28T11:04:33.250Z,11.41
2022-09-28T11:05:33.610Z,11.43
2022-09-28T11:06:33.206Z,11.46
2022-09-28T11:07:33.206Z,11.56
2022-09-28T11:08:33.531Z,11.65
2022-09-28T11:09:33.377Z,11.67
2022-09-28T11:10:33.240Z,11.70
2022-09-28T11:11:33.246Z,11.71
2022-09-28T11:12:33.166Z,11.75
2022-09-28T11:13:33.175Z,11.77
2022-09-28T11:14:33.127Z,11.82
2022-09-28T11:15:33.132Z,11.80
2022-09-28T11:16:33.164Z,11.78
2022-09-28T11:17:33.179Z,11.72
2022-09-28T11:18:33.134Z,11.65
2022-09-28T11:19:33.225Z,11.57
2022-09-28T11:20:33.157Z,11.57
2022-09-28T11:21:33.052Z,11.53
2022-09-28T11:22:33.177Z,11.52
2022-09-28T11:23:33.164Z,11.50
2022-09-28T11:24:33.052Z,11.49
2022-09-28T11:25:33.034Z,11.49
2022-09-28T11:26:33.007Z,11.47
2022-09-28T11:27:33.179Z,11.49
2022-09-28T11:28:33.005Z,11.46
2022-09-28T11:29:33.063Z,11.43
2022-09-28T11:30:33.071Z,11.39
2022-09-28T11:31:32.968Z,11.35
2022-09-28T11:32:32.966Z,11.20
2022-09-28T11:33:32.926Z,11.14
2022-09-28T11:34:57.457Z,11.11
2022-09-28T11:35:32.965Z,11.10
2022-09-28T11:36:32.932Z,11.03
2022-09-28T11:37:33.056Z,10.95
2022-09-28T11:38:32.962Z,10.86
2022-09-28T11:39:32.990Z,10.77
2022-09-28T11:40:33.200Z,10.76
2022-09-28T11:41:32.944Z,10.76
2022-09-28T11:42:32.937Z,10.74
2022-09-28T11:43:32.858Z,10.77
2022-09-28T11:44:33.647Z,10.76
2022-09-28T11:45:32.800Z,10.76
2022-09-28T11:46:33.037Z,10.77
2022-09-28T11:47:33.125Z,10.76
2022-09-28T11:48:33.099Z,10.70
2022-09-28T11:49:32.776Z,10.65
2022-09-28T11:50:32.809Z,10.63
2022-09-28T11:51:32.774Z,10.65
2022-09-28T11:52:32.971Z,10.66
2022-09-28T11:53:32.939Z,10.68
2022-09-28T11:54:33.043Z,10.68
2022-09-28T11:55:32.721Z,10.71
2022-09-28T11:56:32.930Z,10.74
2022-09-28T11:57:32.733Z,10.78
2022-09-28T11:58:32.817Z,10.84
2022-09-28T11:59:32.812Z,10.92
2022-09-28T12:00:33.138Z,10.99
2022-09-28T12:01:32.741Z,11.06
2022-09-28T12:02:32.958Z,11.11
2022-09-28T12:03:32.822Z,11.16
2022-09-28T12:04:32.678Z,11.46
2022-09-28T12:05:32.702Z,11.64
2022-09-28T12:06:32.681Z,11.72
2022-09-28T12:07:32.640Z,11.83
2022-09-28T12:08:32.617Z,11.93
2022-09-28T12:09:32.684Z,11.97
2022-09-28T12:10:32.564Z,12.01
2022-09-28T12:11:32.554Z,12.04
2022-09-28T12:12:32.570Z,12.02
2022-09-28T12:13:32.545Z,12.04
2022-09-28T12:14:32.520Z,12.06
2022-09-28T12:15:47.211Z,12.12
2022-09-28T12:17:01.015Z,12.09
2022-09-28T12:17:32.597Z,12.08
2022-09-28T12:18:32.662Z,12.04
2022-09-28T12:19:32.732Z,11.96
2022-09-28T12:20:32.597Z,11.99
2022-09-28T12:21:32.677Z,12.01
2022-09-28T12:22:32.705Z,11.90
2022-09-28T12:23:32.655Z,11.90
2022-09-28T12:24:32.491Z,11.90
2022-09-28T12:25:32.621Z,11.93
2022-09-28T12:26:37.185Z,11.94
2022-09-28T12:27:32.497Z,11.94
2022-09-28T12:28:32.417Z,11.96
2022-09-28T12:29:32.578Z,11.99
2022-09-28T12:30:32.453Z,11.96
2022-09-28T12:31:32.378Z,11.89
2022-09-28T12:32:32.560Z,11.77
2022-09-28T12:33:32.320Z,11.72
2022-09-28T12:34:32.417Z,11.72
2022-09-28T12:35:32.424Z,11.67
2022-09-28T12:36:32.439Z,11.67
2022-09-28T12:37:32.414Z,11.70
2022-09-28T12:38:32.447Z,11.72
2022-09-28T12:39:53.666Z,11.77
2022-09-28T12:40:32.409Z,11.82
2022-09-28T12:41:32.440Z,11.86
2022-09-28T12:42:32.218Z,11.94
2022-09-28T12:43:32.498Z,11.99
2022-09-28T12:44:32.337Z,12.02
2022-09-28T12:45:38.775Z,12.06
2022-09-28T12:46:32.628Z,12.09
2022-09-28T12:47:32.346Z,12.09
2022-09-28T12:48:32.325Z,12.11
2022-09-28T12:50:36.597Z,12.11
2022-09-28T12:50:49.961Z,12.12
2022-09-28T12:51:32.206Z,12.12
2022-09-28T12:52:32.449Z,12.11
2022-09-28T12:53:32.160Z,12.09
2022-09-28T12:54:32.170Z,12.09
2022-09-28T12:55:32.126Z,12.05
2022-09-28T12:56:32.127Z,11.97
2022-09-28T12:57:32.257Z,11.97
2022-09-28T12:58:32.221Z,11.96
2022-09-28T12:59:32.138Z,11.96
2022-09-28T13:00:32.168Z,11.96
2022-09-28T13:01:32.195Z,11.96
2022-09-28T13:02:32.515Z,11.96
2022-09-28T13:03:32.209Z,12.01
2022-09-28T13:04:32.140Z,12.13
2022-09-28T13:05:32.125Z,12.24
2022-09-28T13:06:32.039Z,12.30
2022-09-28T13:07:32.085Z,12.37
2022-09-28T13:08:32.000Z,12.45
2022-09-28T13:09:32.024Z,12.71
2022-09-28T13:10:32.001Z,12.82
2022-09-28T13:11:32.074Z,12.97
2022-09-28T13:12:32.000Z,13.02